Terminal Aerodrome Forecast
Issued by NWS

Home | Current Version | Previous Version | Text Only | Print | Product List | Glossary Off
Versions: 1 2 3 4 5 6 7 8 9 10 11 12 13 14 15 16 17 18 19 20 21 22 23 24 25

000
FTUS43 KBIS 042325
TAFMOT
TAF
KMOT 042325Z 0500/0524 17011KT 4SM TSRA BKN050CB OVC100
     FM050200 35009KT P6SM SCT015 OVC100
     FM051300 35013KT P6SM -SHRA VCTS SCT035 BKN060CB
     FM052000 34012KT P6SM SCT060=

USA.gov is the U.S. government's official web portal to all federal, state and local government web resources and services.